Time;durP1;ratioP1;P1;durP2;ratioP2;P2;SDS_P1;SDS_P2;PMS_P1;PMS_P2;Temp;Humidity;BMP_temperature;BMP_pressure;BME280_temperature;BME280_humidity;BME280_pressure;Samples;Min_cycle;Max_cycle;Signal;HPM_P1;HPM_P2
2022/05/13 00:24:59;;;;;;;9.52;3.90;;;14.40;99.70;;;;;;4925346;23;20101;-82
2022/05/13 00:27:25;;;;;;;9.55;3.08;;;14.40;99.80;;;;;;4864018;29;20064;-80
2022/05/13 00:29:51;;;;;;;10.02;3.10;;;14.40;99.80;;;;;;4868796;29;20048;-76
2022/05/13 00:32:18;;;;;;;10.52;4.28;;;14.40;99.60;;;;;;4883134;29;20693;-77
2022/05/13 00:34:43;;;;;;;7.25;3.60;;;14.40;99.70;;;;;;4882721;29;20013;-81
2022/05/13 00:37:10;;;;;;;7.20;3.17;;;14.40;99.60;;;;;;4882625;29;20043;-75
2022/05/13 00:39:36;;;;;;;14.98;3.92;;;14.40;99.60;;;;;;4882248;29;20021;-82
2022/05/13 00:42:10;;;;;;;7.32;3.20;;;14.30;99.80;;;;;;4866198;29;20713;-82
2022/05/13 00:44:36;;;;;;;9.13;4.03;;;14.30;99.90;;;;;;4882583;29;20068;-86
2022/05/13 00:47:03;;;;;;;9.60;4.20;;;13.40;99.90;;;;;;4882311;29;20303;-78
2022/05/13 00:49:31;;;;;;;7.32;3.42;;;14.30;99.90;;;;;;4865865;29;20035;-81
2022/05/13 00:51:59;;;;;;;9.25;3.55;;;14.30;99.90;;;;;;4865348;29;20059;-75
2022/05/13 00:54:25;;;;;;;5.80;3.05;;;14.20;99.90;;;;;;4882136;29;20029;-79
2022/05/13 00:56:51;;;;;;;6.25;3.90;;;14.20;99.90;;;;;;4882356;29;20089;-81
2022/05/13 00:59:20;;;;;;;8.25;2.78;;;14.20;99.90;;;;;;4882212;29;20036;-76
2022/05/13 01:01:48;;;;;;;6.10;3.17;;;14.20;99.90;;;;;;4882161;29;20725;-80
2022/05/13 01:04:16;;;;;;;9.07;3.40;;;14.20;99.90;;;;;;4865545;29;20088;-82
2022/05/13 01:06:54;;;;;;;8.82;3.83;;;14.20;99.90;;;;;;4882255;29;20021;-84
2022/05/13 01:09:21;;;;;;;10.38;4.30;;;14.10;99.90;;;;;;4882539;29;20024;-85
2022/05/13 01:11:52;;;;;;;9.90;4.60;;;14.00;99.90;;;;;;4881968;29;20017;-81
2022/05/13 01:14:28;;;;;;;7.85;3.65;;;13.90;99.90;;;;;;4882393;29;20109;-76
2022/05/13 01:19:38;;;;;;;7.25;3.55;;;13.80;99.90;;;;;;4882149;29;20432;-74
2022/05/13 01:22:15;;;;;;;7.22;3.40;;;13.80;99.90;;;;;;4883296;29;20497;-76
2022/05/13 01:24:41;;;;;;;7.22;3.55;;;13.70;99.90;;;;;;4900387;29;20040;-83
2022/05/13 01:27:07;;;;;;;8.88;3.20;;;13.70;99.90;;;;;;4904570;29;20492;-85
2022/05/13 01:29:33;;;;;;;8.35;2.90;;;15.80;99.90;;;;;;4887377;29;20173;-82
2022/05/13 01:31:59;;;;;;;8.45;3.20;;;13.70;99.90;;;;;;4906441;29;20111;-83
2022/05/13 01:34:25;;;;;;;9.55;3.60;;;13.70;99.90;;;;;;4906652;29;20039;-83
2022/05/13 01:36:50;;;;;;;9.63;3.72;;;13.70;99.90;;;;;;4906069;29;20024;-76
2022/05/13 01:39:16;;;;;;;5.55;2.70;;;13.70;99.90;;;;;;4906694;29;20024;-79
2022/05/13 01:41:41;;;;;;;8.80;3.35;;;13.70;99.90;;;;;;4888843;29;20028;-85
2022/05/13 01:44:07;;;;;;;6.28;2.80;;;13.70;99.90;;;;;;4905222;29;20032;-87
2022/05/13 01:46:33;;;;;;;7.70;4.28;;;13.70;99.90;;;;;;4905132;29;20697;-79
2022/05/13 01:48:58;;;;;;;8.90;3.55;;;13.70;99.90;;;;;;4887833;29;20033;-84
2022/05/13 01:51:25;;;;;;;6.10;3.13;;;13.70;99.90;;;;;;4887778;29;20038;-81
2022/05/13 01:53:51;;;;;;;7.18;3.92;;;13.70;99.90;;;;;;4904293;29;20043;-76
2022/05/13 01:56:17;;;;;;;8.65;3.67;;;13.60;99.90;;;;;;4904448;29;20696;-83
2022/05/13 01:58:42;;;;;;;7.70;3.45;;;13.60;99.90;;;;;;4904386;29;20068;-81
2022/05/13 02:01:08;;;;;;;10.65;3.63;;;13.60;99.90;;;;;;4904419;29;20727;-77
2022/05/13 02:03:46;;;;;;;8.35;3.65;;;13.60;99.90;;;;;;4903952;29;20535;-77
2022/05/13 02:06:23;;;;;;;8.85;3.10;;;13.50;99.90;;;;;;4887296;29;20020;-82
2022/05/13 02:08:51;;;;;;;9.38;3.33;;;13.50;99.90;;;;;;4904063;29;20020;-82
2022/05/13 02:11:19;;;;;;;7.03;3.22;;;13.50;99.90;;;;;;4903831;29;20546;-82
2022/05/13 02:13:45;;;;;;;6.25;2.53;;;13.40;99.90;;;;;;4903919;29;20020;-82
2022/05/13 02:16:12;;;;;;;7.82;3.15;;;13.40;99.90;;;;;;4886894;29;20044;-78
2022/05/13 02:18:38;;;;;;;6.70;3.17;;;13.40;99.90;;;;;;4903508;29;20024;-81
2022/05/13 02:21:04;;;;;;;7.05;3.72;;;13.30;99.90;;;;;;4903988;29;20031;-76
2022/05/13 02:23:29;;;;;;;10.10;3.40;;;13.40;99.90;;;;;;4903366;29;20056;-82
2022/05/13 02:26:03;;;;;;;8.80;4.07;;;13.40;99.90;;;;;;4903349;29;20040;-77
2022/05/13 02:28:30;;;;;;;11.52;3.30;;;13.30;99.90;;;;;;4903454;29;20095;-77
2022/05/13 02:30:56;;;;;;;7.43;3.30;;;13.30;99.90;;;;;;4903947;29;20364;-75
2022/05/13 02:33:22;;;;;;;8.63;3.35;;;13.30;99.90;;;;;;4903218;29;20017;-76
2022/05/13 02:35:48;;;;;;;5.25;2.50;;;13.30;99.90;;;;;;4887132;29;20663;-74
2022/05/13 02:38:15;;;;;;;8.05;3.10;;;13.30;99.90;;;;;;4904567;29;20024;-75
2022/05/13 02:43:26;;;;;;;9.18;3.92;;;13.20;99.90;;;;;;4890165;29;20047;-77
2022/05/13 02:45:52;;;;;;;5.60;2.80;;;13.10;99.90;;;;;;4887574;29;20032;-82
2022/05/13 02:48:18;;;;;;;8.70;3.47;;;13.10;99.90;;;;;;4906522;29;20020;-76
2022/05/13 02:50:44;;;;;;;7.55;3.47;;;13.00;99.90;;;;;;4909247;29;20028;-82
2022/05/13 02:53:10;;;;;;;11.00;4.10;;;12.90;99.90;;;;;;4914413;29;20707;-75
2022/05/13 02:55:35;;;;;;;6.40;3.67;;;12.90;99.90;;;;;;4902834;29;20092;-81
2022/05/13 02:58:04;;;;;;;7.22;3.30;;;12.90;99.90;;;;;;4921001;29;20030;-77
2022/05/13 03:00:30;;;;;;;10.77;3.60;;;12.90;99.90;;;;;;4920416;29;20059;-82
2022/05/13 03:02:55;;;;;;;8.25;3.17;;;12.90;99.90;;;;;;4917698;29;20071;-77
2022/05/13 03:05:21;;;;;;;6.45;3.50;;;12.90;99.90;;;;;;4917196;29;20080;-76
2022/05/13 03:07:47;;;;;;;8.90;4.13;;;12.90;99.90;;;;;;4925784;29;20308;-79
2022/05/13 03:10:13;;;;;;;6.50;2.97;;;12.90;99.90;;;;;;4908365;29;20100;-78
2022/05/13 03:12:39;;;;;;;7.40;3.75;;;12.90;99.90;;;;;;4903206;29;20084;-83
2022/05/13 03:15:05;;;;;;;7.95;3.95;;;12.80;99.90;;;;;;4906664;29;20016;-82
2022/05/13 03:17:31;;;;;;;6.22;2.85;;;12.70;99.90;;;;;;4905760;29;20040;-85
2022/05/13 03:19:57;;;;;;;8.13;3.50;;;12.80;99.90;;;;;;4905430;29;20311;-81
2022/05/13 03:22:23;;;;;;;8.32;3.78;;;12.70;99.90;;;;;;4904519;29;20563;-76
2022/05/13 03:24:49;;;;;;;6.38;2.80;;;12.70;99.90;;;;;;4904159;29;20048;-81
2022/05/13 03:27:15;;;;;;;6.88;2.92;;;12.70;99.90;;;;;;4904028;29;20031;-86
2022/05/13 03:29:41;;;;;;;6.50;3.30;;;12.70;99.90;;;;;;4887305;29;20682;-85
2022/05/13 03:32:08;;;;;;;7.95;3.20;;;12.60;99.90;;;;;;4905207;29;20028;-84
2022/05/13 03:34:36;;;;;;;6.68;2.97;;;12.60;99.90;;;;;;4906301;29;20169;-86
2022/05/13 03:37:02;;;;;;;7.50;3.33;;;12.60;99.90;;;;;;4907039;29;20024;-79
2022/05/13 03:39:29;;;;;;;10.98;4.22;;;12.60;99.90;;;;;;4908322;29;20035;-87
2022/05/13 03:41:55;;;;;;;6.60;3.50;;;12.60;99.90;;;;;;4906798;29;20024;-75
2022/05/13 03:44:20;;;;;;;7.85;2.75;;;12.60;99.90;;;;;;4905588;29;20519;-85
2022/05/13 03:46:46;;;;;;;9.45;3.40;;;12.50;99.90;;;;;;4906581;29;20026;-75
2022/05/13 03:49:12;;;;;;;7.45;3.50;;;12.50;99.90;;;;;;4903933;29;20654;-88
2022/05/13 03:51:37;;;;;;;7.05;3.08;;;12.60;99.90;;;;;;4903212;29;20020;-88
2022/05/13 03:54:04;;;;;;;7.80;3.22;;;12.60;99.90;;;;;;4885355;29;20694;-85
2022/05/13 03:56:29;;;;;;;7.18;2.85;;;12.60;99.90;;;;;;4902564;29;20024;-85
2022/05/13 03:58:56;;;;;;;8.75;3.92;;;12.60;99.90;;;;;;4902335;29;20024;-87
2022/05/13 04:01:21;;;;;;;7.43;2.85;;;12.60;99.90;;;;;;4902239;29;20024;-82
2022/05/13 04:03:47;;;;;;;10.93;3.55;;;12.60;99.90;;;;;;4901356;29;20032;-84
2022/05/13 04:08:59;;;;;;;7.10;3.47;;;12.60;99.90;;;;;;4901793;29;20098;-90
2022/05/13 04:11:31;;;;;;;6.88;3.40;;;12.50;99.90;;;;;;4900866;29;20031;-76
2022/05/13 04:16:42;;;;;;;9.38;3.20;;;12.60;99.90;;;;;;4901855;29;20087;-82
2022/05/13 04:19:08;;;;;;;8.95;3.60;;;12.60;99.90;;;;;;4885643;29;20020;-74
2022/05/13 04:21:39;;;;;;;6.78;3.45;;;12.70;99.90;;;;;;4900238;29;20739;-81
2022/05/13 04:24:07;;;;;;;5.95;3.08;;;12.70;99.90;;;;;;4900498;29;20063;-90
2022/05/13 04:26:33;;;;;;;8.10;3.83;;;12.70;99.90;;;;;;4901558;29;20024;-89
2022/05/13 04:28:59;;;;;;;7.28;4.07;;;12.70;99.90;;;;;;4901793;29;20028;-87
2022/05/13 04:31:31;;;;;;;9.48;3.88;;;12.80;99.90;;;;;;4901496;29;20071;-75
2022/05/13 04:33:57;;;;;;;7.43;3.05;;;12.80;99.90;;;;;;4901444;29;20020;-89
2022/05/13 04:36:24;;;;;;;9.05;4.20;;;12.80;99.90;;;;;;4901702;29;20566;-89
2022/05/13 04:38:51;;;;;;;8.80;4.28;;;12.80;99.90;;;;;;4901520;29;20103;-88
2022/05/13 04:44:03;;;;;;;10.65;5.55;;;12.90;99.90;;;;;;4902122;29;20044;-85
2022/05/13 04:46:31;;;;;;;20.17;8.75;;;13.00;99.90;;;;;;4903820;29;20099;-75
2022/05/13 04:48:57;;;;;;;10.18;3.90;;;13.10;99.90;;;;;;4903400;29;20028;-88
2022/05/13 04:51:23;;;;;;;8.60;4.15;;;13.20;99.90;;;;;;4884911;29;20064;-88
2022/05/13 04:53:51;;;;;;;8.77;4.82;;;13.30;99.90;;;;;;4901305;29;20325;-81
2022/05/13 04:56:19;;;;;;;7.53;4.03;;;13.40;99.90;;;;;;4901290;29;20138;-75
2022/05/13 04:58:45;;;;;;;14.63;9.23;;;13.50;99.90;;;;;;4900643;29;20022;-87
2022/05/13 05:01:12;;;;;;;18.17;8.32;;;13.60;99.90;;;;;;4901268;29;20039;-74
2022/05/13 05:03:40;;;;;;;8.73;5.10;;;13.70;99.90;;;;;;4900919;29;20753;-80
2022/05/13 05:06:07;;;;;;;9.00;5.38;;;13.80;99.90;;;;;;4900824;29;20111;-75
2022/05/13 05:08:33;;;;;;;9.55;4.80;;;13.80;99.90;;;;;;4900789;29;20028;-73
2022/05/13 05:11:00;;;;;;;12.13;5.45;;;13.90;99.90;;;;;;4901062;29;20522;-83
2022/05/13 05:13:27;;;;;;;10.10;5.50;;;14.00;99.90;;;;;;4901288;29;20154;-89
2022/05/13 05:15:54;;;;;;;10.85;5.10;;;14.10;99.90;;;;;;4900890;29;20083;-74
2022/05/13 05:18:20;;;;;;;7.32;4.07;;;14.20;99.90;;;;;;4901167;29;20039;-73
2022/05/13 05:20:47;;;;;;;10.25;3.80;;;14.30;99.90;;;;;;4900656;29;20040;-85
2022/05/13 05:23:18;;;;;;;12.48;4.13;;;14.40;99.90;;;;;;4901128;29;20040;-89
2022/05/13 05:25:44;;;;;;;7.57;3.88;;;14.50;99.90;;;;;;4900692;29;20468;-73
2022/05/13 05:28:10;;;;;;;9.07;3.80;;;14.60;99.90;;;;;;4901134;29;20083;-88
2022/05/13 05:30:37;;;;;;;9.20;4.18;;;14.70;99.90;;;;;;4900643;29;20047;-74
2022/05/13 05:33:03;;;;;;;6.25;3.40;;;14.80;99.90;;;;;;4900438;29;20100;-73
2022/05/13 05:35:29;;;;;;;9.32;4.65;;;14.90;99.90;;;;;;4900743;29;20770;-73
2022/05/13 05:37:55;;;;;;;8.80;3.50;;;15.00;99.50;;;;;;4900266;29;20012;-80
2022/05/13 05:40:21;;;;;;;7.85;3.60;;;15.10;99.30;;;;;;4900194;29;20192;-74
2022/05/13 05:42:48;;;;;;;17.00;9.45;;;15.20;99.20;;;;;;4883328;29;20044;-74
2022/05/13 05:45:15;;;;;;;15.20;7.38;;;15.30;99.10;;;;;;4899990;29;20060;-74
2022/05/13 05:47:41;;;;;;;15.95;8.48;;;15.40;99.00;;;;;;4900452;29;20016;-74
2022/05/13 05:50:10;;;;;;;15.98;7.22;;;15.40;98.90;;;;;;4900421;29;20036;-85
2022/05/13 05:52:35;;;;;;;10.75;6.15;;;15.50;98.80;;;;;;4900170;29;20031;-83
2022/05/13 05:58:00;;;;;;;;;;;15.80;98.50;;;;;;4900757;29;20112;-73
2022/05/13 06:00:27;;;;;;;11.23;4.63;;;15.90;97.80;;;;;;4900372;29;19903;-80
2022/05/13 06:02:53;;;;;;;9.55;4.50;;;16.10;97.40;;;;;;4898587;29;20054;-78
2022/05/13 06:05:19;;;;;;;7.97;3.58;;;16.20;97.10;;;;;;4883596;29;20097;-79
2022/05/13 06:07:49;;;;;;;12.93;4.40;;;16.30;96.90;;;;;;4900420;29;20020;-84
2022/05/13 06:10:16;;;;;;;8.32;3.80;;;16.50;96.60;;;;;;4902636;29;20692;-85
2022/05/13 06:12:41;;;;;;;9.30;4.47;;;16.70;96.40;;;;;;4886873;29;20119;-87
2022/05/13 06:15:08;;;;;;;6.35;3.58;;;16.80;96.00;;;;;;4903980;29;20104;-85
2022/05/13 06:17:34;;;;;;;9.82;4.35;;;17.00;95.70;;;;;;4903593;29;20483;-79
2022/05/13 06:20:06;;;;;;;12.40;4.20;;;17.10;95.70;;;;;;4904097;29;20027;-75
2022/05/13 06:22:32;;;;;;;9.77;4.63;;;17.30;95.60;;;;;;4903703;29;20044;-79
2022/05/13 06:24:58;;;;;;;11.85;5.25;;;17.40;95.30;;;;;;4902620;29;20052;-77
2022/05/13 06:27:24;;;;;;;11.57;4.47;;;17.40;95.00;;;;;;4901747;29;20020;-82
2022/05/13 06:29:51;;;;;;;13.13;5.57;;;17.60;94.80;;;;;;4902037;29;20056;-83
2022/05/13 06:32:17;;;;;;;15.98;5.57;;;17.70;94.70;;;;;;4901851;29;20107;-84
2022/05/13 06:34:43;;;;;;;9.95;4.50;;;17.80;94.50;;;;;;4901852;29;20837;-80
2022/05/13 06:37:09;;;;;;;10.25;4.88;;;17.80;94.80;;;;;;4884932;29;20123;-80
2022/05/13 06:39:34;;;;;;;9.82;4.72;;;17.90;93.80;;;;;;4902148;29;20029;-80
2022/05/13 06:42:00;;;;;;;11.45;3.95;;;17.60;93.50;;;;;;4901764;29;20048;-75
2022/05/13 06:44:26;;;;;;;11.68;5.68;;;18.10;93.50;;;;;;4901861;29;20139;-76
2022/05/13 06:46:52;;;;;;;14.20;6.18;;;18.30;93.20;;;;;;4901269;29;20032;-78
2022/05/13 06:49:17;;;;;;;7.25;3.58;;;18.50;92.80;;;;;;4884370;29;20605;-75
2022/05/13 06:51:43;;;;;;;16.60;5.15;;;18.70;92.30;;;;;;4884832;29;20025;-77
2022/05/13 06:54:11;;;;;;;8.75;4.72;;;18.00;91.90;;;;;;4901468;29;20424;-77
2022/05/13 06:56:39;;;;;;;10.88;5.32;;;19.00;91.90;;;;;;4884954;29;20043;-75
2022/05/13 06:59:06;;;;;;;11.80;3.90;;;21.40;92.40;;;;;;4901238;29;20076;-77
2022/05/13 07:01:32;;;;;;;10.80;4.35;;;19.40;91.40;;;;;;4901123;29;20087;-81
2022/05/13 07:03:57;;;;;;;9.65;4.70;;;19.40;90.80;;;;;;4901117;29;20044;-75
2022/05/13 07:06:23;;;;;;;10.10;4.72;;;19.50;90.50;;;;;;4901469;29;20663;-77
2022/05/13 07:08:51;;;;;;;9.98;4.72;;;19.60;90.40;;;;;;4900302;29;20548;-83
2022/05/13 07:11:18;;;;;;;9.25;4.70;;;19.70;90.10;;;;;;4901056;29;20519;-79
2022/05/13 07:13:44;;;;;;;11.35;5.35;;;19.90;89.80;;;;;;4901310;29;20107;-77
2022/05/13 07:16:11;;;;;;;13.40;4.90;;;20.00;89.70;;;;;;4901384;29;20028;-76
2022/05/13 07:18:38;;;;;;;11.40;6.03;;;20.10;89.60;;;;;;4883844;29;20040;-78
2022/05/13 07:21:04;;;;;;;10.65;4.70;;;20.10;88.90;;;;;;4900717;29;20116;-80
2022/05/13 07:23:30;;;;;;;10.05;4.88;;;20.30;88.90;;;;;;4859114;29;1240957;-81
2022/05/13 07:25:57;;;;;;;10.38;5.22;;;20.30;88.80;;;;;;4902005;29;21038;-81
2022/05/13 07:28:23;;;;;;;12.52;5.85;;;20.50;88.30;;;;;;4884820;29;20793;-81
2022/05/13 07:30:49;;;;;;;12.45;5.07;;;20.60;87.80;;;;;;4885365;29;20670;-77
2022/05/13 07:33:16;;;;;;;8.80;4.70;;;20.50;87.00;;;;;;4884754;29;20096;-75
2022/05/13 07:35:42;;;;;;;9.43;4.53;;;21.00;88.30;;;;;;4902127;29;20111;-79
2022/05/13 07:38:08;;;;;;;13.73;5.15;;;20.80;86.20;;;;;;4902115;29;20104;-75
2022/05/13 07:43:18;;;;;;;11.43;5.50;;;21.00;85.70;;;;;;4902364;29;20030;-83
2022/05/13 07:45:44;;;;;;;9.63;4.57;;;21.10;84.10;;;;;;4885127;29;20032;-76
2022/05/13 07:48:09;;;;;;;13.00;5.68;;;21.30;84.80;;;;;;4901787;29;20040;-82
2022/05/13 07:50:35;;;;;;;8.88;5.05;;;21.30;83.80;;;;;;4901837;29;20500;-76
2022/05/13 07:53:01;;;;;;;10.40;5.20;;;21.70;84.90;;;;;;4902675;29;20027;-78
2022/05/13 07:55:27;;;;;;;10.20;5.20;;;21.50;83.30;;;;;;4903530;29;20044;-76
2022/05/13 07:57:53;;;;;;;10.75;5.70;;;21.70;82.40;;;;;;4904100;29;20020;-79
2022/05/13 08:00:33;;;;;;;12.13;5.70;;;21.80;81.70;;;;;;4903604;29;20026;-77
2022/05/13 08:03:08;;;;;;;10.30;4.53;;;22.10;81.10;;;;;;4902171;29;20180;-73
2022/05/13 08:05:42;;;;;;;9.93;5.57;;;22.60;80.70;;;;;;4902017;29;20028;-77
2022/05/13 08:08:19;;;;;;;9.13;4.63;;;22.40;80.00;;;;;;4904888;29;20726;-78
2022/05/13 08:10:49;;;;;;;10.07;5.80;;;22.60;79.50;;;;;;4887797;29;20024;-76
2022/05/13 08:13:14;;;;;;;9.02;4.57;;;22.80;77.90;;;;;;4868025;29;20044;-80
2022/05/13 08:15:40;;;;;;;10.50;4.78;;;23.00;75.90;;;;;;4866943;29;20164;-81
2022/05/13 08:18:07;;;;;;;9.38;4.13;;;22.90;75.30;;;;;;4883300;29;20023;-83
2022/05/13 08:20:33;;;;;;;9.32;4.45;;;22.90;76.10;;;;;;4883581;29;20025;-83
2022/05/13 08:22:59;;;;;;;10.10;4.60;;;23.20;75.60;;;;;;4882778;29;20033;-84
2022/05/13 08:25:26;;;;;;;9.77;4.28;;;23.30;75.40;;;;;;4882719;29;20032;-83
2022/05/13 08:27:55;;;;;;;8.82;4.72;;;23.50;75.40;;;;;;4882386;29;20135;-78
2022/05/13 08:30:22;;;;;;;11.77;4.60;;;23.60;74.30;;;;;;4881979;29;20119;-83
2022/05/13 08:32:48;;;;;;;10.77;5.10;;;23.70;74.20;;;;;;4881588;29;20048;-82
2022/05/13 08:35:15;;;;;;;10.35;5.07;;;23.90;73.30;;;;;;4882162;29;20024;-76
2022/05/13 08:40:36;;;;;;;9.15;4.70;;;24.30;72.80;;;;;;4899409;29;20052;-80
2022/05/13 08:43:11;;;;;;;9.82;4.97;;;24.30;72.70;;;;;;4871291;29;20029;-75
2022/05/13 08:45:40;;;;;;;10.20;5.20;;;24.50;72.20;;;;;;4901324;29;20079;-81
2022/05/13 08:48:11;;;;;;;10.75;4.97;;;24.80;72.30;;;;;;4901364;29;20017;-83
2022/05/13 08:50:52;;;;;;;9.77;4.88;;;24.90;71.30;;;;;;4901186;29;20111;-83
2022/05/13 08:53:30;;;;;;;10.48;4.75;;;24.90;70.90;;;;;;4901577;29;20150;-84
2022/05/13 08:56:05;;;;;;;8.48;4.93;;;24.90;70.60;;;;;;4884352;29;20029;-84
2022/05/13 08:58:37;;;;;;;9.05;4.90;;;24.70;70.40;;;;;;4901379;29;20219;-82
2022/05/13 09:01:09;;;;;;;10.83;5.60;;;24.90;71.30;;;;;;4901115;29;20031;-76
2022/05/13 09:03:46;;;;;;;10.32;5.18;;;24.80;70.80;;;;;;4883583;29;20105;-77
2022/05/13 09:06:27;;;;;;;9.45;5.47;;;25.00;70.80;;;;;;4884711;29;20025;-80
2022/05/13 09:08:53;;;;;;;9.38;4.18;;;25.00;69.10;;;;;;4883676;29;20679;-84
2022/05/13 09:11:54;;;;;;;10.70;5.18;;;25.20;70.70;;;;;;4877906;29;20032;-78
2022/05/13 09:14:44;;;;;;;13.57;5.38;;;25.20;71.20;;;;;;4882028;29;20032;-78
2022/05/13 09:17:28;;;;;;;11.60;4.97;;;25.40;69.90;;;;;;4869961;29;20084;-83
2022/05/13 09:20:11;;;;;;;12.77;5.22;;;25.60;69.50;;;;;;4881992;29;20039;-84
2022/05/13 09:22:42;;;;;;;12.30;5.53;;;25.60;68.60;;;;;;4882244;29;20032;-78
2022/05/13 09:25:55;;;;;;;13.00;6.05;;;25.90;68.10;;;;;;4881366;29;20029;-77
2022/05/13 09:28:22;;;;;;;13.07;5.65;;;25.70;69.50;;;;;;4804994;29;20045;-84
2022/05/13 09:30:50;;;;;;;14.30;6.53;;;25.80;68.40;;;;;;4805076;29;20042;-83
2022/05/13 09:33:35;;;;;;;10.82;5.05;;;25.70;69.10;;;;;;4804707;29;20683;-76
2022/05/13 09:36:03;;;;;;;11.52;5.32;;;26.00;69.40;;;;;;4805445;29;20682;-83
2022/05/13 09:38:48;;;;;;;13.55;6.25;;;26.30;68.00;;;;;;4804795;29;20050;-77
2022/05/13 09:41:27;;;;;;;10.60;5.25;;;26.40;67.90;;;;;;4804904;29;20038;-79
2022/05/13 09:43:55;;;;;;;11.05;5.85;;;26.90;66.70;;;;;;4806627;29;20111;-80
2022/05/13 09:46:31;;;;;;;11.40;5.53;;;24.80;66.00;;;;;;4808053;29;20643;-82
2022/05/13 09:49:04;;;;;;;9.25;5.15;;;26.30;66.80;;;;;;4808643;29;20034;-84
2022/05/13 09:51:36;;;;;;;11.32;5.63;;;26.50;65.60;;;;;;4793422;29;20058;-81
2022/05/13 09:54:06;;;;;;;11.35;5.00;;;26.50;65.90;;;;;;4808625;29;20034;-80
2022/05/13 09:56:39;;;;;;;10.55;5.97;;;26.50;66.30;;;;;;4808515;29;20022;-81
2022/05/13 09:59:12;;;;;;;10.93;5.13;;;26.60;65.90;;;;;;4808168;29;20030;-85
2022/05/13 10:01:38;;;;;;;;;;;26.60;64.90;;;;;;4808790;29;20034;-78
2022/05/13 10:04:28;;;;;;;10.38;5.38;;;27.00;64.10;;;;;;4814743;29;20229;-85
2022/05/13 10:07:06;;;;;;;9.43;5.00;;;27.00;64.20;;;;;;4884953;29;20107;-82
2022/05/13 10:15:29;;;;;;;7.65;4.15;;;27.10;63.00;;;;;;4885918;29;20083;-83
2022/05/13 10:18:29;;;;;;;10.27;5.30;;;27.20;63.60;;;;;;4884872;29;20133;-78
2022/05/13 10:21:15;;;;;;;8.23;4.70;;;27.70;62.10;;;;;;4885054;29;20020;-84
2022/05/13 10:23:48;;;;;;;12.75;5.20;;;27.80;60.50;;;;;;4884861;29;20109;-79
2022/05/13 10:26:20;;;;;;;10.75;5.82;;;28.00;61.10;;;;;;4885078;29;20096;-84
2022/05/13 10:29:01;;;;;;;9.93;4.37;;;28.20;61.20;;;;;;4884814;29;20104;-84
2022/05/13 10:31:29;;;;;;;10.57;4.78;;;28.50;59.90;;;;;;4884359;29;20108;-82
2022/05/13 10:34:17;;;;;;;8.32;4.80;;;28.70;59.50;;;;;;4867716;29;20031;-83
2022/05/13 10:37:04;;;;;;;9.88;4.30;;;29.00;59.00;;;;;;4884713;29;20084;-80
2022/05/13 10:39:30;;;;;;;9.82;4.75;;;26.60;55.90;;;;;;4870412;29;20044;-83
2022/05/13 10:41:59;;;;;;;8.13;4.32;;;29.10;58.00;;;;;;4865623;29;20025;-85
2022/05/13 10:44:53;;;;;;;10.82;5.07;;;29.10;58.30;;;;;;4865334;29;20852;-84
2022/05/13 10:47:41;;;;;;;7.60;3.70;;;29.20;57.00;;;;;;4865695;29;20085;-84
2022/05/13 10:50:22;;;;;;;8.52;4.75;;;29.60;54.50;;;;;;4865327;29;20033;-85
2022/05/13 10:53:18;;;;;;;7.18;3.63;;;30.30;56.00;;;;;;4865783;29;20028;-84
2022/05/13 10:55:59;;;;;;;8.00;3.85;;;29.60;54.60;;;;;;4848742;29;20287;-85
2022/05/13 10:58:57;;;;;;;8.57;3.88;;;29.60;54.30;;;;;;4866196;29;20056;-83
2022/05/13 11:02:14;;;;;;;8.68;3.92;;;29.40;53.10;;;;;;4948374;24;20027;-82
2022/05/13 11:05:20;;;;;;;7.78;4.28;;;30.70;54.70;;;;;;4866530;29;20690;-86
2022/05/13 11:11:41;;;;;;;11.77;3.92;;;31.10;53.90;;;;;;4868854;29;20627;-80
2022/05/13 11:14:26;;;;;;;9.30;4.13;;;31.90;51.90;;;;;;4868079;29;20660;-83
2022/05/13 11:16:54;;;;;;;7.82;3.67;;;30.30;51.30;;;;;;4868437;29;20683;-83
2022/05/13 11:19:36;;;;;;;9.93;3.80;;;30.50;50.80;;;;;;4883975;29;20119;-84
2022/05/13 11:22:23;;;;;;;9.70;3.80;;;31.00;50.00;;;;;;4867269;29;20024;-83
2022/05/13 11:28:00;;;;;;;5.88;2.78;;;31.30;48.30;;;;;;4884349;29;20540;-84
2022/05/13 11:30:33;;;;;;;8.65;3.50;;;31.90;46.20;;;;;;4883521;29;20024;-82
2022/05/13 11:33:11;;;;;;;11.25;3.85;;;32.30;45.10;;;;;;4883195;29;20032;-84
2022/05/13 11:35:52;;;;;;;6.78;3.00;;;32.00;43.50;;;;;;4883619;29;20095;-83
2022/05/13 11:38:44;;;;;;;9.52;3.55;;;32.20;43.70;;;;;;4881047;29;20687;-84
2022/05/13 11:41:13;;;;;;;6.50;3.22;;;32.40;43.00;;;;;;4791426;29;20091;-81
2022/05/13 11:43:59;;;;;;;7.88;3.42;;;32.40;42.40;;;;;;4791033;29;20125;-81
2022/05/13 11:46:35;;;;;;;7.70;3.40;;;32.20;39.90;;;;;;4806396;29;20107;-85
2022/05/13 11:49:30;;;;;;;6.55;2.50;;;32.50;41.80;;;;;;4806821;29;20028;-82
2022/05/13 11:52:12;;;;;;;6.38;2.65;;;33.10;41.20;;;;;;4791500;29;20146;-84
2022/05/13 11:54:40;;;;;;;7.13;2.75;;;33.30;38.10;;;;;;4791606;29;20071;-80
2022/05/13 11:57:23;;;;;;;5.85;2.92;;;33.40;39.30;;;;;;4806947;29;20107;-83
2022/05/13 11:59:50;;;;;;;9.52;3.00;;;33.70;39.40;;;;;;4806457;29;20062;-84
2022/05/13 12:02:45;;;;;;;5.50;2.65;;;33.70;37.50;;;;;;4790839;29;20293;-85
2022/05/13 12:05:19;;;;;;;8.13;3.05;;;34.10;36.90;;;;;;4806604;29;20609;-84
2022/05/13 12:08:02;;;;;;;7.95;2.88;;;33.80;37.90;;;;;;4805355;29;20184;-84
2022/05/13 12:11:00;;;;;;;5.22;2.58;;;34.40;38.00;;;;;;4806365;29;20030;-81
2022/05/13 12:13:51;;;;;;;7.60;2.75;;;35.00;36.80;;;;;;4806852;29;20731;-85
2022/05/13 12:16:28;;;;;;;6.37;2.63;;;35.00;36.30;;;;;;4734904;30;20123;-84
2022/05/13 12:19:31;;;;;;;6.82;2.90;;;35.50;35.40;;;;;;4789825;29;20278;-84
2022/05/13 12:22:05;;;;;;;;;;;35.50;35.00;;;;;;4807012;29;20075;-84
2022/05/13 12:24:59;;;;;;;6.30;2.80;;;35.60;34.00;;;;;;4806231;29;20193;-86
2022/05/13 12:27:35;;;;;;;6.43;2.63;;;35.80;33.60;;;;;;4806527;29;20027;-85
2022/05/13 12:30:09;;;;;;;7.97;3.10;;;36.10;34.90;;;;;;4790975;29;20102;-85
2022/05/13 12:32:39;;;;;;;6.30;2.72;;;36.40;34.00;;;;;;4806137;29;20034;-85
2022/05/13 12:37:56;;;;;;;6.50;2.90;;;36.70;34.70;;;;;;4806716;29;20033;-84
2022/05/13 12:40:21;;;;;;;5.22;2.60;;;36.70;34.60;;;;;;4806227;29;20042;-85
2022/05/13 12:42:47;;;;;;;7.38;3.13;;;36.40;35.10;;;;;;4805845;29;20657;-84
2022/05/13 12:45:22;;;;;;;5.55;2.83;;;36.80;35.50;;;;;;4791105;29;20045;-84
2022/05/13 12:48:05;;;;;;;6.13;3.00;;;37.40;35.00;;;;;;4806227;29;20042;-83
2022/05/13 12:50:45;;;;;;;8.32;3.08;;;37.40;33.60;;;;;;4807018;29;20670;-80
2022/05/13 12:53:35;;;;;;;4.97;2.63;;;37.90;34.30;;;;;;4839874;29;20040;-82
2022/05/13 12:56:22;;;;;;;7.18;2.67;;;38.00;33.00;;;;;;4906640;29;20021;-81
2022/05/13 12:59:06;;;;;;;5.85;2.72;;;38.10;33.10;;;;;;4907006;29;20021;-83
2022/05/13 13:01:32;;;;;;;5.88;2.50;;;38.50;32.90;;;;;;4892329;29;20040;-81
2022/05/13 13:03:59;;;;;;;6.35;2.72;;;38.30;33.10;;;;;;4904262;29;20032;-82
2022/05/13 13:06:46;;;;;;;7.93;3.90;;;38.40;31.70;;;;;;4907468;29;20091;-86
2022/05/13 13:11:58;;;;;;;5.82;2.40;;;37.70;31.60;;;;;;5051780;24;20052;-86
2022/05/13 13:14:57;;;;;;;5.13;2.22;;;35.00;29.50;;;;;;4890750;29;20025;-85
2022/05/13 13:17:44;;;;;;;7.93;2.28;;;37.50;30.00;;;;;;4810280;29;20114;-86
2022/05/13 13:20:14;;;;;;;5.07;2.17;;;37.60;29.80;;;;;;4849028;29;20612;-80
2022/05/13 13:22:43;;;;;;;4.78;2.20;;;37.50;30.50;;;;;;4847008;29;20390;-79
2022/05/13 13:25:31;;;;;;;4.95;2.17;;;37.40;30.30;;;;;;4846777;29;20046;-85
2022/05/13 13:28:04;;;;;;;4.63;2.17;;;37.70;30.20;;;;;;4845597;29;20573;-87
2022/05/13 13:30:31;;;;;;;5.28;2.40;;;37.50;30.00;;;;;;4846001;29;20057;-86
2022/05/13 13:32:57;;;;;;;6.65;3.17;;;37.40;31.40;;;;;;4830773;29;20032;-82
2022/05/13 13:35:38;;;;;;;4.90;2.42;;;36.90;31.50;;;;;;4845792;29;20037;-87
2022/05/13 13:38:08;;;;;;;6.20;2.95;;;37.10;30.90;;;;;;4845564;29;20604;-83
2022/05/13 13:40:40;;;;;;;5.57;2.22;;;36.50;30.60;;;;;;4845365;29;20175;-82
2022/05/13 13:43:09;;;;;;;;;;;37.10;30.00;;;;;;4837072;29;20109;-83
2022/05/13 13:45:34;;;;;;;4.53;2.58;;;36.70;31.30;;;;;;4827124;29;20101;-85
2022/05/13 13:48:00;;;;;;;4.82;2.65;;;35.90;31.80;;;;;;4827185;29;20517;-85
2022/05/13 13:50:30;;;;;;;4.85;2.40;;;36.30;32.10;;;;;;4826815;29;20109;-83
2022/05/13 13:52:56;;;;;;;5.38;2.35;;;36.50;31.50;;;;;;4827772;29;20022;-80
2022/05/13 13:55:38;;;;;;;5.40;3.00;;;36.60;31.30;;;;;;4903963;29;20482;-88
2022/05/13 13:58:29;;;;;;;6.32;2.72;;;36.90;31.30;;;;;;4887730;29;20428;-86
2022/05/13 14:00:55;;;;;;;7.03;2.72;;;36.80;31.60;;;;;;4904641;29;20032;-88
2022/05/13 14:03:27;;;;;;;5.40;2.60;;;37.00;32.10;;;;;;4904045;29;20622;-86
2022/05/13 14:06:01;;;;;;;6.47;2.60;;;37.20;31.10;;;;;;4904214;29;20515;-86
2022/05/13 14:08:31;;;;;;;5.90;3.03;;;36.80;31.60;;;;;;4904401;29;20024;-84
2022/05/13 14:10:59;;;;;;;6.97;2.20;;;36.50;31.40;;;;;;4904698;29;20092;-89